sensor_id;sensor_type;location;lat;lon;timestamp;P1;durP1;ratioP1;P2;durP2;ratioP2
39982;SDS011;25670;44.782;10.356;2022-11-20T00:01:26;88.65;;;34.85;;
39982;SDS011;25670;44.782;10.356;2022-11-20T00:03:54;102.20;;;38.00;;
39982;SDS011;25670;44.782;10.356;2022-11-20T00:06:21;85.97;;;33.70;;
39982;SDS011;25670;44.782;10.356;2022-11-20T00:08:48;91.03;;;34.28;;
39982;SDS011;25670;44.782;10.356;2022-11-20T00:11:16;84.60;;;35.33;;
39982;SDS011;25670;44.782;10.356;2022-11-20T00:13:46;77.55;;;33.95;;
39982;SDS011;25670;44.782;10.356;2022-11-20T00:16:14;85.90;;;36.70;;
39982;SDS011;25670;44.782;10.356;2022-11-20T00:18:42;86.55;;;35.90;;
39982;SDS011;25670;44.782;10.356;2022-11-20T00:21:11;92.25;;;37.33;;
39982;SDS011;25670;44.782;10.356;2022-11-20T00:23:39;95.50;;;36.80;;
39982;SDS011;25670;44.782;10.356;2022-11-20T00:26:07;89.60;;;34.63;;
39982;SDS011;25670;44.782;10.356;2022-11-20T00:28:35;93.30;;;36.22;;
39982;SDS011;25670;44.782;10.356;2022-11-20T00:31:03;84.10;;;36.08;;
39982;SDS011;25670;44.782;10.356;2022-11-20T00:33:34;90.63;;;36.45;;
39982;SDS011;25670;44.782;10.356;2022-11-20T00:36:01;90.25;;;35.92;;
39982;SDS011;25670;44.782;10.356;2022-11-20T00:38:29;89.63;;;34.38;;
39982;SDS011;25670;44.782;10.356;2022-11-20T00:41:00;88.40;;;33.15;;
39982;SDS011;25670;44.782;10.356;2022-11-20T00:43:28;81.80;;;32.70;;
39982;SDS011;25670;44.782;10.356;2022-11-20T00:45:59;86.88;;;33.53;;
39982;SDS011;25670;44.782;10.356;2022-11-20T00:48:26;77.90;;;31.95;;
39982;SDS011;25670;44.782;10.356;2022-11-20T00:50:53;78.25;;;33.63;;
39982;SDS011;25670;44.782;10.356;2022-11-20T00:53:20;82.47;;;31.33;;
39982;SDS011;25670;44.782;10.356;2022-11-20T00:55:56;82.85;;;33.15;;
39982;SDS011;25670;44.782;10.356;2022-11-20T00:58:24;80.40;;;33.95;;
39982;SDS011;25670;44.782;10.356;2022-11-20T01:00:59;81.18;;;31.80;;
39982;SDS011;25670;44.782;10.356;2022-11-20T01:03:36;70.53;;;30.67;;
39982;SDS011;25670;44.782;10.356;2022-11-20T01:06:05;71.43;;;29.67;;
39982;SDS011;25670;44.782;10.356;2022-11-20T01:08:39;71.35;;;29.80;;
39982;SDS011;25670;44.782;10.356;2022-11-20T01:11:07;74.53;;;29.88;;
39982;SDS011;25670;44.782;10.356;2022-11-20T01:13:35;63.88;;;28.50;;
39982;SDS011;25670;44.782;10.356;2022-11-20T01:16:06;70.50;;;28.88;;
39982;SDS011;25670;44.782;10.356;2022-11-20T01:18:38;72.60;;;28.88;;
39982;SDS011;25670;44.782;10.356;2022-11-20T01:21:14;69.90;;;29.60;;
39982;SDS011;25670;44.782;10.356;2022-11-20T01:23:45;62.50;;;28.73;;
39982;SDS011;25670;44.782;10.356;2022-11-20T01:26:12;69.53;;;28.58;;
39982;SDS011;25670;44.782;10.356;2022-11-20T01:28:40;73.22;;;27.33;;
39982;SDS011;25670;44.782;10.356;2022-11-20T01:31:17;70.65;;;28.77;;
39982;SDS011;25670;44.782;10.356;2022-11-20T01:36:16;70.65;;;28.95;;
39982;SDS011;25670;44.782;10.356;2022-11-20T01:38:44;75.97;;;29.60;;
39982;SDS011;25670;44.782;10.356;2022-11-20T01:41:11;77.40;;;31.20;;
39982;SDS011;25670;44.782;10.356;2022-11-20T01:44:02;84.57;;;32.00;;
39982;SDS011;25670;44.782;10.356;2022-11-20T01:46:30;87.68;;;33.50;;
39982;SDS011;25670;44.782;10.356;2022-11-20T01:49:02;78.53;;;32.97;;
39982;SDS011;25670;44.782;10.356;2022-11-20T01:51:56;78.15;;;32.13;;
39982;SDS011;25670;44.782;10.356;2022-11-20T01:55:09;75.93;;;32.03;;
39982;SDS011;25670;44.782;10.356;2022-11-20T01:57:26;83.93;;;32.08;;
39982;SDS011;25670;44.782;10.356;2022-11-20T01:59:57;84.72;;;34.08;;
39982;SDS011;25670;44.782;10.356;2022-11-20T02:02:38;81.38;;;33.25;;
39982;SDS011;25670;44.782;10.356;2022-11-20T02:05:21;88.20;;;33.70;;
39982;SDS011;25670;44.782;10.356;2022-11-20T02:07:58;82.07;;;32.33;;
39982;SDS011;25670;44.782;10.356;2022-11-20T02:10:26;81.82;;;30.08;;
39982;SDS011;25670;44.782;10.356;2022-11-20T02:12:53;76.03;;;31.73;;
39982;SDS011;25670;44.782;10.356;2022-11-20T02:15:39;77.50;;;29.83;;
39982;SDS011;25670;44.782;10.356;2022-11-20T02:18:06;66.72;;;28.73;;
39982;SDS011;25670;44.782;10.356;2022-11-20T02:20:33;78.40;;;30.42;;
39982;SDS011;25670;44.782;10.356;2022-11-20T02:23:04;76.65;;;30.67;;
39982;SDS011;25670;44.782;10.356;2022-11-20T02:25:37;67.45;;;28.42;;
39982;SDS011;25670;44.782;10.356;2022-11-20T02:28:05;78.43;;;30.80;;
39982;SDS011;25670;44.782;10.356;2022-11-20T02:30:32;65.22;;;26.67;;
39982;SDS011;25670;44.782;10.356;2022-11-20T02:32:58;68.32;;;29.17;;
39982;SDS011;25670;44.782;10.356;2022-11-20T02:37:52;70.25;;;27.63;;
39982;SDS011;25670;44.782;10.356;2022-11-20T02:40:21;67.43;;;28.08;;
39982;SDS011;25670;44.782;10.356;2022-11-20T02:42:47;76.15;;;29.02;;
39982;SDS011;25670;44.782;10.356;2022-11-20T02:45:14;75.30;;;29.27;;
39982;SDS011;25670;44.782;10.356;2022-11-20T02:47:41;76.13;;;28.80;;
39982;SDS011;25670;44.782;10.356;2022-11-20T02:50:07;71.05;;;28.92;;
39982;SDS011;25670;44.782;10.356;2022-11-20T02:52:33;69.38;;;28.17;;
39982;SDS011;25670;44.782;10.356;2022-11-20T02:55:00;74.43;;;29.00;;
39982;SDS011;25670;44.782;10.356;2022-11-20T02:57:27;81.85;;;28.38;;
39982;SDS011;25670;44.782;10.356;2022-11-20T02:59:53;74.30;;;29.40;;
39982;SDS011;25670;44.782;10.356;2022-11-20T03:02:20;85.63;;;30.85;;
39982;SDS011;25670;44.782;10.356;2022-11-20T03:04:46;77.75;;;29.67;;
39982;SDS011;25670;44.782;10.356;2022-11-20T03:07:13;85.50;;;29.40;;
39982;SDS011;25670;44.782;10.356;2022-11-20T03:09:39;68.80;;;27.38;;
39982;SDS011;25670;44.782;10.356;2022-11-20T03:12:06;66.82;;;27.05;;
39982;SDS011;25670;44.782;10.356;2022-11-20T03:14:32;56.78;;;25.17;;
39982;SDS011;25670;44.782;10.356;2022-11-20T03:16:59;67.60;;;25.27;;
39982;SDS011;25670;44.782;10.356;2022-11-20T03:19:25;60.20;;;23.90;;
39982;SDS011;25670;44.782;10.356;2022-11-20T03:21:51;55.53;;;23.95;;
39982;SDS011;25670;44.782;10.356;2022-11-20T03:24:18;58.40;;;25.33;;
39982;SDS011;25670;44.782;10.356;2022-11-20T03:26:44;58.55;;;23.75;;
39982;SDS011;25670;44.782;10.356;2022-11-20T03:29:10;64.85;;;24.95;;
39982;SDS011;25670;44.782;10.356;2022-11-20T03:31:38;63.03;;;24.05;;
39982;SDS011;25670;44.782;10.356;2022-11-20T03:34:06;66.35;;;25.23;;
39982;SDS011;25670;44.782;10.356;2022-11-20T03:36:33;64.63;;;25.65;;
39982;SDS011;25670;44.782;10.356;2022-11-20T03:39:00;53.08;;;23.83;;
39982;SDS011;25670;44.782;10.356;2022-11-20T03:41:27;64.75;;;23.50;;
39982;SDS011;25670;44.782;10.356;2022-11-20T03:43:58;63.00;;;23.13;;
39982;SDS011;25670;44.782;10.356;2022-11-20T03:46:26;71.38;;;26.77;;
39982;SDS011;25670;44.782;10.356;2022-11-20T03:48:53;66.10;;;26.95;;
39982;SDS011;25670;44.782;10.356;2022-11-20T03:51:24;60.65;;;24.58;;
39982;SDS011;25670;44.782;10.356;2022-11-20T03:53:53;66.00;;;26.15;;
39982;SDS011;25670;44.782;10.356;2022-11-20T03:56:28;68.20;;;26.67;;
39982;SDS011;25670;44.782;10.356;2022-11-20T03:58:57;64.18;;;26.05;;
39982;SDS011;25670;44.782;10.356;2022-11-20T04:01:25;67.85;;;26.85;;
39982;SDS011;25670;44.782;10.356;2022-11-20T04:03:53;70.45;;;27.60;;
39982;SDS011;25670;44.782;10.356;2022-11-20T04:06:25;86.00;;;30.38;;
39982;SDS011;25670;44.782;10.356;2022-11-20T04:08:56;87.97;;;29.63;;
39982;SDS011;25670;44.782;10.356;2022-11-20T04:11:24;89.88;;;29.45;;
39982;SDS011;25670;44.782;10.356;2022-11-20T04:13:53;84.65;;;29.67;;
39982;SDS011;25670;44.782;10.356;2022-11-20T04:16:21;82.55;;;30.45;;
39982;SDS011;25670;44.782;10.356;2022-11-20T04:18:52;75.63;;;27.73;;
39982;SDS011;25670;44.782;10.356;2022-11-20T04:21:19;75.40;;;26.40;;
39982;SDS011;25670;44.782;10.356;2022-11-20T04:23:46;73.55;;;25.95;;
39982;SDS011;25670;44.782;10.356;2022-11-20T04:26:12;87.10;;;29.90;;
39982;SDS011;25670;44.782;10.356;2022-11-20T04:28:39;98.15;;;32.08;;
39982;SDS011;25670;44.782;10.356;2022-11-20T04:31:09;105.32;;;33.83;;
39982;SDS011;25670;44.782;10.356;2022-11-20T04:33:36;92.72;;;31.45;;
39982;SDS011;25670;44.782;10.356;2022-11-20T04:36:04;81.97;;;29.48;;
39982;SDS011;25670;44.782;10.356;2022-11-20T04:38:38;80.38;;;28.13;;
39982;SDS011;25670;44.782;10.356;2022-11-20T04:41:05;72.78;;;27.27;;
39982;SDS011;25670;44.782;10.356;2022-11-20T04:43:33;87.93;;;28.17;;
39982;SDS011;25670;44.782;10.356;2022-11-20T04:46:00;78.13;;;29.75;;
39982;SDS011;25670;44.782;10.356;2022-11-20T04:48:27;73.88;;;28.60;;
39982;SDS011;25670;44.782;10.356;2022-11-20T04:50:54;80.43;;;29.42;;
39982;SDS011;25670;44.782;10.356;2022-11-20T04:53:22;81.90;;;30.15;;
39982;SDS011;25670;44.782;10.356;2022-11-20T04:55:49;84.13;;;31.08;;
39982;SDS011;25670;44.782;10.356;2022-11-20T04:58:15;85.93;;;30.95;;
39982;SDS011;25670;44.782;10.356;2022-11-20T05:00:42;88.57;;;32.78;;
39982;SDS011;25670;44.782;10.356;2022-11-20T05:03:08;83.18;;;30.10;;
39982;SDS011;25670;44.782;10.356;2022-11-20T05:05:35;87.07;;;31.40;;
39982;SDS011;25670;44.782;10.356;2022-11-20T05:08:01;68.43;;;26.42;;
39982;SDS011;25670;44.782;10.356;2022-11-20T05:10:28;74.88;;;27.38;;
39982;SDS011;25670;44.782;10.356;2022-11-20T05:12:54;79.03;;;28.65;;
39982;SDS011;25670;44.782;10.356;2022-11-20T05:15:21;76.43;;;27.00;;
39982;SDS011;25670;44.782;10.356;2022-11-20T05:17:48;86.30;;;30.08;;
39982;SDS011;25670;44.782;10.356;2022-11-20T05:20:15;73.75;;;27.85;;
39982;SDS011;25670;44.782;10.356;2022-11-20T05:22:41;74.13;;;26.85;;
39982;SDS011;25670;44.782;10.356;2022-11-20T05:25:08;58.10;;;23.17;;
39982;SDS011;25670;44.782;10.356;2022-11-20T05:27:35;54.33;;;22.30;;
39982;SDS011;25670;44.782;10.356;2022-11-20T05:30:02;64.68;;;24.20;;
39982;SDS011;25670;44.782;10.356;2022-11-20T05:32:32;56.65;;;23.08;;
39982;SDS011;25670;44.782;10.356;2022-11-20T05:34:59;50.58;;;21.35;;
39982;SDS011;25670;44.782;10.356;2022-11-20T05:37:26;55.83;;;21.88;;
39982;SDS011;25670;44.782;10.356;2022-11-20T05:39:52;54.90;;;22.20;;
39982;SDS011;25670;44.782;10.356;2022-11-20T05:42:19;51.33;;;21.10;;
39982;SDS011;25670;44.782;10.356;2022-11-20T05:45:02;64.03;;;25.33;;
39982;SDS011;25670;44.782;10.356;2022-11-20T05:47:33;75.75;;;26.73;;
39982;SDS011;25670;44.782;10.356;2022-11-20T05:50:00;90.03;;;29.50;;
39982;SDS011;25670;44.782;10.356;2022-11-20T05:52:30;81.35;;;28.98;;
39982;SDS011;25670;44.782;10.356;2022-11-20T05:54:56;97.00;;;31.45;;
39982;SDS011;25670;44.782;10.356;2022-11-20T05:57:22;83.78;;;29.55;;
39982;SDS011;25670;44.782;10.356;2022-11-20T05:59:48;107.00;;;33.15;;
39982;SDS011;25670;44.782;10.356;2022-11-20T06:02:15;105.75;;;33.33;;
39982;SDS011;25670;44.782;10.356;2022-11-20T06:04:41;110.57;;;35.17;;
39982;SDS011;25670;44.782;10.356;2022-11-20T06:07:08;101.32;;;32.35;;
39982;SDS011;25670;44.782;10.356;2022-11-20T06:09:34;98.32;;;31.75;;
39982;SDS011;25670;44.782;10.356;2022-11-20T06:12:01;81.93;;;30.10;;
39982;SDS011;25670;44.782;10.356;2022-11-20T06:14:27;97.18;;;30.50;;
39982;SDS011;25670;44.782;10.356;2022-11-20T06:16:54;101.18;;;31.90;;
39982;SDS011;25670;44.782;10.356;2022-11-20T06:19:20;110.50;;;35.53;;
39982;SDS011;25670;44.782;10.356;2022-11-20T06:21:47;108.50;;;33.47;;
39982;SDS011;25670;44.782;10.356;2022-11-20T06:24:15;104.30;;;32.90;;
39982;SDS011;25670;44.782;10.356;2022-11-20T06:26:42;98.28;;;30.52;;
39982;SDS011;25670;44.782;10.356;2022-11-20T06:29:08;89.93;;;29.85;;
39982;SDS011;25670;44.782;10.356;2022-11-20T06:31:35;82.63;;;29.52;;
39982;SDS011;25670;44.782;10.356;2022-11-20T06:34:03;90.30;;;30.60;;
39982;SDS011;25670;44.782;10.356;2022-11-20T06:36:31;111.18;;;32.22;;
39982;SDS011;25670;44.782;10.356;2022-11-20T06:38:59;110.78;;;32.53;;
39982;SDS011;25670;44.782;10.356;2022-11-20T06:41:25;99.82;;;32.40;;
39982;SDS011;25670;44.782;10.356;2022-11-20T06:43:53;98.07;;;32.92;;
39982;SDS011;25670;44.782;10.356;2022-11-20T06:46:20;93.57;;;31.08;;
39982;SDS011;25670;44.782;10.356;2022-11-20T06:48:47;110.75;;;40.45;;
39982;SDS011;25670;44.782;10.356;2022-11-20T06:51:14;91.78;;;33.65;;
39982;SDS011;25670;44.782;10.356;2022-11-20T06:53:40;71.25;;;27.58;;
39982;SDS011;25670;44.782;10.356;2022-11-20T06:56:06;74.70;;;27.02;;
39982;SDS011;25670;44.782;10.356;2022-11-20T06:58:33;79.60;;;27.73;;
39982;SDS011;25670;44.782;10.356;2022-11-20T07:01:01;71.82;;;24.80;;
39982;SDS011;25670;44.782;10.356;2022-11-20T07:03:30;71.38;;;26.60;;
39982;SDS011;25670;44.782;10.356;2022-11-20T07:05:56;72.43;;;26.70;;
39982;SDS011;25670;44.782;10.356;2022-11-20T07:08:23;84.53;;;29.38;;
39982;SDS011;25670;44.782;10.356;2022-11-20T07:10:50;76.70;;;26.98;;
39982;SDS011;25670;44.782;10.356;2022-11-20T07:13:17;82.57;;;26.80;;
39982;SDS011;25670;44.782;10.356;2022-11-20T07:15:43;74.65;;;27.65;;
39982;SDS011;25670;44.782;10.356;2022-11-20T07:18:10;93.72;;;28.95;;
39982;SDS011;25670;44.782;10.356;2022-11-20T07:20:36;139.63;;;56.10;;
39982;SDS011;25670;44.782;10.356;2022-11-20T07:23:03;96.57;;;33.30;;
39982;SDS011;25670;44.782;10.356;2022-11-20T07:25:29;86.95;;;30.98;;
39982;SDS011;25670;44.782;10.356;2022-11-20T07:27:59;103.30;;;31.23;;
39982;SDS011;25670;44.782;10.356;2022-11-20T07:30:26;93.72;;;32.90;;
39982;SDS011;25670;44.782;10.356;2022-11-20T07:32:53;105.25;;;33.53;;
39982;SDS011;25670;44.782;10.356;2022-11-20T07:35:21;109.68;;;32.72;;
39982;SDS011;25670;44.782;10.356;2022-11-20T07:37:48;103.63;;;36.38;;
39982;SDS011;25670;44.782;10.356;2022-11-20T07:40:15;110.28;;;35.47;;
39982;SDS011;25670;44.782;10.356;2022-11-20T07:42:51;109.72;;;34.85;;
39982;SDS011;25670;44.782;10.356;2022-11-20T07:45:20;118.55;;;36.20;;
39982;SDS011;25670;44.782;10.356;2022-11-20T07:47:48;121.13;;;36.15;;
39982;SDS011;25670;44.782;10.356;2022-11-20T07:50:15;115.82;;;38.17;;
39982;SDS011;25670;44.782;10.356;2022-11-20T07:52:41;128.52;;;39.20;;
39982;SDS011;25670;44.782;10.356;2022-11-20T07:55:08;123.93;;;40.35;;
39982;SDS011;25670;44.782;10.356;2022-11-20T07:57:35;137.45;;;41.28;;
39982;SDS011;25670;44.782;10.356;2022-11-20T08:00:05;147.95;;;43.85;;
39982;SDS011;25670;44.782;10.356;2022-11-20T08:02:40;173.90;;;48.70;;
39982;SDS011;25670;44.782;10.356;2022-11-20T08:05:07;175.48;;;50.72;;
39982;SDS011;25670;44.782;10.356;2022-11-20T08:07:36;186.63;;;52.38;;
39982;SDS011;25670;44.782;10.356;2022-11-20T08:10:06;173.50;;;51.83;;
39982;SDS011;25670;44.782;10.356;2022-11-20T08:12:33;166.25;;;48.88;;
39982;SDS011;25670;44.782;10.356;2022-11-20T08:15:18;174.57;;;51.75;;
39982;SDS011;25670;44.782;10.356;2022-11-20T08:17:44;171.20;;;49.22;;
39982;SDS011;25670;44.782;10.356;2022-11-20T08:20:11;183.48;;;51.80;;
39982;SDS011;25670;44.782;10.356;2022-11-20T08:22:37;181.45;;;50.60;;
39982;SDS011;25670;44.782;10.356;2022-11-20T08:25:04;146.88;;;48.03;;
39982;SDS011;25670;44.782;10.356;2022-11-20T08:27:31;142.70;;;45.33;;
39982;SDS011;25670;44.782;10.356;2022-11-20T08:29:57;132.48;;;45.25;;
39982;SDS011;25670;44.782;10.356;2022-11-20T08:32:24;141.10;;;45.97;;
39982;SDS011;25670;44.782;10.356;2022-11-20T08:34:50;133.60;;;42.20;;
39982;SDS011;25670;44.782;10.356;2022-11-20T08:37:16;121.47;;;42.13;;
39982;SDS011;25670;44.782;10.356;2022-11-20T08:39:43;117.88;;;44.10;;
39982;SDS011;25670;44.782;10.356;2022-11-20T08:42:09;115.18;;;42.35;;
39982;SDS011;25670;44.782;10.356;2022-11-20T08:44:35;115.55;;;40.78;;
39982;SDS011;25670;44.782;10.356;2022-11-20T08:47:01;111.68;;;39.28;;
39982;SDS011;25670;44.782;10.356;2022-11-20T08:49:27;123.00;;;40.65;;
39982;SDS011;25670;44.782;10.356;2022-11-20T08:51:54;111.38;;;40.80;;
39982;SDS011;25670;44.782;10.356;2022-11-20T08:54:20;99.97;;;38.03;;
39982;SDS011;25670;44.782;10.356;2022-11-20T08:56:48;113.35;;;41.00;;
39982;SDS011;25670;44.782;10.356;2022-11-20T08:59:14;101.65;;;39.05;;
39982;SDS011;25670;44.782;10.356;2022-11-20T09:01:40;95.78;;;37.88;;
39982;SDS011;25670;44.782;10.356;2022-11-20T09:04:06;101.35;;;36.38;;
39982;SDS011;25670;44.782;10.356;2022-11-20T09:06:33;98.57;;;35.22;;
39982;SDS011;25670;44.782;10.356;2022-11-20T09:08:59;89.13;;;33.47;;
39982;SDS011;25670;44.782;10.356;2022-11-20T09:11:25;84.00;;;32.90;;
39982;SDS011;25670;44.782;10.356;2022-11-20T09:13:52;92.43;;;33.05;;
39982;SDS011;25670;44.782;10.356;2022-11-20T09:16:18;78.93;;;30.73;;
39982;SDS011;25670;44.782;10.356;2022-11-20T09:18:45;85.78;;;32.45;;
39982;SDS011;25670;44.782;10.356;2022-11-20T09:21:12;80.70;;;32.67;;
39982;SDS011;25670;44.782;10.356;2022-11-20T09:23:39;84.93;;;32.72;;
39982;SDS011;25670;44.782;10.356;2022-11-20T09:26:07;88.65;;;32.78;;
39982;SDS011;25670;44.782;10.356;2022-11-20T09:31:16;78.30;;;29.30;;
39982;SDS011;25670;44.782;10.356;2022-11-20T09:33:47;81.78;;;31.33;;
39982;SDS011;25670;44.782;10.356;2022-11-20T09:36:13;68.22;;;28.75;;
39982;SDS011;25670;44.782;10.356;2022-11-20T09:38:41;64.22;;;28.40;;
39982;SDS011;25670;44.782;10.356;2022-11-20T09:41:14;61.72;;;26.75;;
39982;SDS011;25670;44.782;10.356;2022-11-20T09:44:02;67.28;;;28.25;;
39982;SDS011;25670;44.782;10.356;2022-11-20T09:46:53;64.45;;;29.45;;
39982;SDS011;25670;44.782;10.356;2022-11-20T09:51:57;74.03;;;29.55;;
39982;SDS011;25670;44.782;10.356;2022-11-20T09:54:37;73.35;;;28.40;;
39982;SDS011;25670;44.782;10.356;2022-11-20T09:57:09;67.03;;;28.50;;
39982;SDS011;25670;44.782;10.356;2022-11-20T09:59:52;63.95;;;28.55;;
39982;SDS011;25670;44.782;10.356;2022-11-20T10:05:08;61.78;;;27.45;;
39982;SDS011;25670;44.782;10.356;2022-11-20T10:11:14;59.22;;;26.23;;
39982;SDS011;25670;44.782;10.356;2022-11-20T10:29:34;53.55;;;23.98;;
39982;SDS011;25670;44.782;10.356;2022-11-20T10:32:09;54.65;;;25.48;;
39982;SDS011;25670;44.782;10.356;2022-11-20T10:37:16;54.00;;;25.83;;
39982;SDS011;25670;44.782;10.356;2022-11-20T10:39:49;59.95;;;26.85;;
39982;SDS011;25670;44.782;10.356;2022-11-20T10:42:24;52.55;;;25.10;;
39982;SDS011;25670;44.782;10.356;2022-11-20T10:45:02;62.83;;;28.08;;
39982;SDS011;25670;44.782;10.356;2022-11-20T10:47:47;64.75;;;26.95;;
39982;SDS011;25670;44.782;10.356;2022-11-20T10:50:15;60.75;;;25.88;;
39982;SDS011;25670;44.782;10.356;2022-11-20T10:55:47;60.13;;;27.20;;
39982;SDS011;25670;44.782;10.356;2022-11-20T10:58:31;61.33;;;27.15;;
39982;SDS011;25670;44.782;10.356;2022-11-20T11:01:19;66.93;;;29.13;;
39982;SDS011;25670;44.782;10.356;2022-11-20T11:03:50;69.75;;;30.58;;
39982;SDS011;25670;44.782;10.356;2022-11-20T11:06:51;70.72;;;33.17;;
39982;SDS011;25670;44.782;10.356;2022-11-20T11:09:18;69.15;;;33.33;;
39982;SDS011;25670;44.782;10.356;2022-11-20T11:11:46;88.20;;;34.58;;
39982;SDS011;25670;44.782;10.356;2022-11-20T11:14:14;73.03;;;33.00;;
39982;SDS011;25670;44.782;10.356;2022-11-20T11:16:51;75.95;;;34.22;;
39982;SDS011;25670;44.782;10.356;2022-11-20T11:19:19;74.65;;;34.03;;
39982;SDS011;25670;44.782;10.356;2022-11-20T11:21:46;79.80;;;34.15;;
39982;SDS011;25670;44.782;10.356;2022-11-20T11:24:19;72.75;;;34.53;;
39982;SDS011;25670;44.782;10.356;2022-11-20T11:26:51;73.78;;;35.17;;
39982;SDS011;25670;44.782;10.356;2022-11-20T11:29:32;70.82;;;34.55;;
39982;SDS011;25670;44.782;10.356;2022-11-20T11:32:05;66.90;;;33.38;;
39982;SDS011;25670;44.782;10.356;2022-11-20T11:34:34;74.57;;;34.67;;
39982;SDS011;25670;44.782;10.356;2022-11-20T11:37:00;71.82;;;33.47;;
39982;SDS011;25670;44.782;10.356;2022-11-20T11:39:29;74.50;;;34.60;;
39982;SDS011;25670;44.782;10.356;2022-11-20T11:41:58;77.57;;;33.45;;
39982;SDS011;25670;44.782;10.356;2022-11-20T11:44:28;77.07;;;35.47;;
39982;SDS011;25670;44.782;10.356;2022-11-20T11:47:26;75.53;;;34.03;;
39982;SDS011;25670;44.782;10.356;2022-11-20T11:52:37;69.65;;;32.88;;
39982;SDS011;25670;44.782;10.356;2022-11-20T11:55:12;77.18;;;34.85;;
39982;SDS011;25670;44.782;10.356;2022-11-20T12:00:20;72.75;;;34.17;;
39982;SDS011;25670;44.782;10.356;2022-11-20T12:02:57;70.43;;;33.97;;
39982;SDS011;25670;44.782;10.356;2022-11-20T12:10:58;68.70;;;33.13;;
39982;SDS011;25670;44.782;10.356;2022-11-20T12:13:47;61.60;;;33.35;;
39982;SDS011;25670;44.782;10.356;2022-11-20T12:16:21;66.45;;;32.92;;
39982;SDS011;25670;44.782;10.356;2022-11-20T12:18:49;64.30;;;31.35;;
39982;SDS011;25670;44.782;10.356;2022-11-20T12:29:41;66.20;;;32.03;;
39982;SDS011;25670;44.782;10.356;2022-11-20T12:33:20;64.40;;;31.95;;
39982;SDS011;25670;44.782;10.356;2022-11-20T12:47:23;62.05;;;32.47;;
39982;SDS011;25670;44.782;10.356;2022-11-20T12:50:15;59.25;;;30.75;;
39982;SDS011;25670;44.782;10.356;2022-11-20T12:53:01;61.53;;;32.38;;
39982;SDS011;25670;44.782;10.356;2022-11-20T12:55:34;62.03;;;32.00;;
39982;SDS011;25670;44.782;10.356;2022-11-20T13:04:13;54.67;;;30.70;;
39982;SDS011;25670;44.782;10.356;2022-11-20T13:06:43;49.20;;;29.05;;
39982;SDS011;25670;44.782;10.356;2022-11-20T13:09:11;55.50;;;31.48;;
39982;SDS011;25670;44.782;10.356;2022-11-20T13:14:42;253.93;;;166.20;;
39982;SDS011;25670;44.782;10.356;2022-11-20T13:20:18;44.03;;;29.88;;
39982;SDS011;25670;44.782;10.356;2022-11-20T13:22:54;42.03;;;28.58;;
39982;SDS011;25670;44.782;10.356;2022-11-20T13:27:54;46.13;;;28.90;;
39982;SDS011;25670;44.782;10.356;2022-11-20T13:30:25;47.22;;;28.40;;
39982;SDS011;25670;44.782;10.356;2022-11-20T13:33:08;49.03;;;29.73;;
39982;SDS011;25670;44.782;10.356;2022-11-20T13:35:59;51.22;;;29.77;;
39982;SDS011;25670;44.782;10.356;2022-11-20T13:38:27;51.63;;;29.75;;
39982;SDS011;25670;44.782;10.356;2022-11-20T13:41:06;54.10;;;29.15;;
39982;SDS011;25670;44.782;10.356;2022-11-20T13:43:52;46.28;;;27.90;;
39982;SDS011;25670;44.782;10.356;2022-11-20T13:46:19;43.90;;;27.20;;
39982;SDS011;25670;44.782;10.356;2022-11-20T13:48:50;43.60;;;28.08;;
39982;SDS011;25670;44.782;10.356;2022-11-20T13:54:03;48.10;;;29.08;;
39982;SDS011;25670;44.782;10.356;2022-11-20T13:56:56;44.97;;;29.10;;
39982;SDS011;25670;44.782;10.356;2022-11-20T14:02:16;47.58;;;29.27;;
39982;SDS011;25670;44.782;10.356;2022-11-20T14:04:51;44.58;;;28.85;;
39982;SDS011;25670;44.782;10.356;2022-11-20T14:07:20;49.30;;;28.65;;
39982;SDS011;25670;44.782;10.356;2022-11-20T14:09:51;45.88;;;30.00;;
39982;SDS011;25670;44.782;10.356;2022-11-20T14:12:28;50.30;;;30.13;;
39982;SDS011;25670;44.782;10.356;2022-11-20T14:14:56;50.45;;;30.90;;
39982;SDS011;25670;44.782;10.356;2022-11-20T14:17:24;44.58;;;29.30;;
39982;SDS011;25670;44.782;10.356;2022-11-20T14:19:56;46.97;;;29.33;;
39982;SDS011;25670;44.782;10.356;2022-11-20T14:22:27;49.85;;;28.70;;
39982;SDS011;25670;44.782;10.356;2022-11-20T14:27:39;53.63;;;32.00;;
39982;SDS011;25670;44.782;10.356;2022-11-20T14:30:14;47.90;;;28.95;;
39982;SDS011;25670;44.782;10.356;2022-11-20T14:32:43;51.17;;;31.25;;
39982;SDS011;25670;44.782;10.356;2022-11-20T14:35:13;48.90;;;30.10;;
39982;SDS011;25670;44.782;10.356;2022-11-20T14:37:51;46.38;;;28.10;;
39982;SDS011;25670;44.782;10.356;2022-11-20T14:42:53;52.22;;;29.77;;
39982;SDS011;25670;44.782;10.356;2022-11-20T14:45:21;56.83;;;32.03;;
39982;SDS011;25670;44.782;10.356;2022-11-20T14:47:48;50.70;;;30.45;;
39982;SDS011;25670;44.782;10.356;2022-11-20T14:50:20;55.25;;;32.33;;
39982;SDS011;25670;44.782;10.356;2022-11-20T14:52:50;56.03;;;30.92;;
39982;SDS011;25670;44.782;10.356;2022-11-20T14:58:04;62.55;;;33.47;;
39982;SDS011;25670;44.782;10.356;2022-11-20T15:00:33;58.60;;;31.85;;
39982;SDS011;25670;44.782;10.356;2022-11-20T15:03:00;51.95;;;30.25;;
39982;SDS011;25670;44.782;10.356;2022-11-20T15:05:46;55.17;;;32.13;;
39982;SDS011;25670;44.782;10.356;2022-11-20T15:08:14;62.20;;;33.53;;
39982;SDS011;25670;44.782;10.356;2022-11-20T15:10:48;64.80;;;33.85;;
39982;SDS011;25670;44.782;10.356;2022-11-20T15:13:17;55.30;;;30.63;;
39982;SDS011;25670;44.782;10.356;2022-11-20T15:15:55;58.72;;;30.73;;
39982;SDS011;25670;44.782;10.356;2022-11-20T15:18:27;61.00;;;31.90;;
39982;SDS011;25670;44.782;10.356;2022-11-20T15:20:57;61.90;;;31.25;;
39982;SDS011;25670;44.782;10.356;2022-11-20T15:23:26;59.33;;;32.05;;
39982;SDS011;25670;44.782;10.356;2022-11-20T15:25:53;67.93;;;33.92;;
39982;SDS011;25670;44.782;10.356;2022-11-20T15:28:21;65.60;;;32.83;;
39982;SDS011;25670;44.782;10.356;2022-11-20T15:30:49;63.78;;;32.45;;
39982;SDS011;25670;44.782;10.356;2022-11-20T15:33:16;68.20;;;33.90;;
39982;SDS011;25670;44.782;10.356;2022-11-20T15:35:43;70.53;;;33.90;;
39982;SDS011;25670;44.782;10.356;2022-11-20T15:38:09;74.20;;;34.78;;
39982;SDS011;25670;44.782;10.356;2022-11-20T15:40:36;74.63;;;34.92;;
39982;SDS011;25670;44.782;10.356;2022-11-20T15:43:02;73.20;;;36.78;;
39982;SDS011;25670;44.782;10.356;2022-11-20T15:45:51;78.25;;;37.05;;
39982;SDS011;25670;44.782;10.356;2022-11-20T15:48:16;79.20;;;38.13;;
39982;SDS011;25670;44.782;10.356;2022-11-20T15:53:38;79.90;;;36.13;;
39982;SDS011;25670;44.782;10.356;2022-11-20T15:56:09;78.95;;;37.25;;
39982;SDS011;25670;44.782;10.356;2022-11-20T15:58:37;82.45;;;37.28;;
39982;SDS011;25670;44.782;10.356;2022-11-20T16:01:04;97.53;;;40.92;;
39982;SDS011;25670;44.782;10.356;2022-11-20T16:03:31;89.57;;;40.47;;